sensor_id;sensor_type;location;lat;lon;timestamp;P1;durP1;ratioP1;P2;durP2;ratioP2
10347;SDS011;5220;43.192;23.284;2022-08-21T00:02:58;9.55;;;2.38;;
10347;SDS011;5220;43.192;23.284;2022-08-21T00:05:32;8.60;;;2.80;;
10347;SDS011;5220;43.192;23.284;2022-08-21T00:08:01;6.32;;;2.20;;
10347;SDS011;5220;43.192;23.284;2022-08-21T00:10:29;6.53;;;2.65;;
10347;SDS011;5220;43.192;23.284;2022-08-21T00:12:56;7.60;;;2.38;;
10347;SDS011;5220;43.192;23.284;2022-08-21T00:15:25;5.07;;;2.00;;
10347;SDS011;5220;43.192;23.284;2022-08-21T00:20:43;6.57;;;2.60;;
10347;SDS011;5220;43.192;23.284;2022-08-21T00:23:11;9.73;;;2.53;;
10347;SDS011;5220;43.192;23.284;2022-08-21T00:25:39;6.65;;;2.58;;
10347;SDS011;5220;43.192;23.284;2022-08-21T00:28:07;7.38;;;2.63;;
10347;SDS011;5220;43.192;23.284;2022-08-21T00:30:35;11.38;;;2.50;;
10347;SDS011;5220;43.192;23.284;2022-08-21T00:33:02;9.65;;;2.92;;
10347;SDS011;5220;43.192;23.284;2022-08-21T00:35:31;9.93;;;2.90;;
10347;SDS011;5220;43.192;23.284;2022-08-21T00:37:59;9.70;;;3.22;;
10347;SDS011;5220;43.192;23.284;2022-08-21T00:40:27;8.73;;;3.17;;
10347;SDS011;5220;43.192;23.284;2022-08-21T00:45:50;5.43;;;2.80;;
10347;SDS011;5220;43.192;23.284;2022-08-21T00:48:18;11.07;;;2.60;;
10347;SDS011;5220;43.192;23.284;2022-08-21T00:50:48;10.63;;;2.92;;
10347;SDS011;5220;43.192;23.284;2022-08-21T00:53:18;8.25;;;2.20;;
10347;SDS011;5220;43.192;23.284;2022-08-21T00:55:45;7.68;;;2.40;;
10347;SDS011;5220;43.192;23.284;2022-08-21T00:58:13;8.48;;;2.72;;
10347;SDS011;5220;43.192;23.284;2022-08-21T01:00:41;8.40;;;2.63;;
10347;SDS011;5220;43.192;23.284;2022-08-21T01:03:13;4.60;;;2.40;;
10347;SDS011;5220;43.192;23.284;2022-08-21T01:05:43;7.57;;;2.33;;
10347;SDS011;5220;43.192;23.284;2022-08-21T01:08:11;11.05;;;2.90;;
10347;SDS011;5220;43.192;23.284;2022-08-21T01:10:39;8.52;;;2.50;;
10347;SDS011;5220;43.192;23.284;2022-08-21T01:13:07;11.10;;;3.15;;
10347;SDS011;5220;43.192;23.284;2022-08-21T01:15:37;10.93;;;3.63;;
10347;SDS011;5220;43.192;23.284;2022-08-21T01:18:05;16.45;;;3.35;;
10347;SDS011;5220;43.192;23.284;2022-08-21T01:20:35;3.20;;;2.28;;
10347;SDS011;5220;43.192;23.284;2022-08-21T01:23:05;13.43;;;2.47;;
10347;SDS011;5220;43.192;23.284;2022-08-21T01:25:32;8.35;;;2.40;;
10347;SDS011;5220;43.192;23.284;2022-08-21T01:28:01;8.25;;;2.60;;
10347;SDS011;5220;43.192;23.284;2022-08-21T01:30:33;9.13;;;2.47;;
10347;SDS011;5220;43.192;23.284;2022-08-21T01:33:02;12.32;;;2.40;;
10347;SDS011;5220;43.192;23.284;2022-08-21T01:35:29;10.20;;;2.25;;
10347;SDS011;5220;43.192;23.284;2022-08-21T01:37:56;12.73;;;2.55;;
10347;SDS011;5220;43.192;23.284;2022-08-21T01:40:24;11.25;;;2.50;;
10347;SDS011;5220;43.192;23.284;2022-08-21T01:42:51;5.53;;;2.60;;
10347;SDS011;5220;43.192;23.284;2022-08-21T01:45:18;10.55;;;3.03;;
10347;SDS011;5220;43.192;23.284;2022-08-21T01:47:45;7.22;;;2.38;;
10347;SDS011;5220;43.192;23.284;2022-08-21T01:50:14;11.25;;;2.53;;
10347;SDS011;5220;43.192;23.284;2022-08-21T01:52:43;7.50;;;2.70;;
10347;SDS011;5220;43.192;23.284;2022-08-21T01:55:11;11.90;;;3.20;;
10347;SDS011;5220;43.192;23.284;2022-08-21T01:57:40;7.65;;;2.75;;
10347;SDS011;5220;43.192;23.284;2022-08-21T02:00:09;12.77;;;2.72;;
10347;SDS011;5220;43.192;23.284;2022-08-21T02:02:38;10.40;;;2.78;;
10347;SDS011;5220;43.192;23.284;2022-08-21T02:05:07;10.55;;;2.90;;
10347;SDS011;5220;43.192;23.284;2022-08-21T02:07:36;12.07;;;2.70;;
10347;SDS011;5220;43.192;23.284;2022-08-21T02:12:44;6.65;;;2.47;;
10347;SDS011;5220;43.192;23.284;2022-08-21T02:15:11;7.80;;;2.90;;
10347;SDS011;5220;43.192;23.284;2022-08-21T02:17:39;12.43;;;2.90;;
10347;SDS011;5220;43.192;23.284;2022-08-21T02:20:07;4.97;;;2.58;;
10347;SDS011;5220;43.192;23.284;2022-08-21T02:22:35;6.28;;;2.28;;
10347;SDS011;5220;43.192;23.284;2022-08-21T02:25:02;7.30;;;2.30;;
10347;SDS011;5220;43.192;23.284;2022-08-21T02:27:29;7.28;;;2.40;;
10347;SDS011;5220;43.192;23.284;2022-08-21T02:30:06;7.65;;;3.17;;
10347;SDS011;5220;43.192;23.284;2022-08-21T02:32:33;8.27;;;2.50;;
10347;SDS011;5220;43.192;23.284;2022-08-21T02:35:00;4.70;;;2.53;;
10347;SDS011;5220;43.192;23.284;2022-08-21T02:37:27;10.13;;;2.55;;
10347;SDS011;5220;43.192;23.284;2022-08-21T02:42:51;18.50;;;3.17;;
10347;SDS011;5220;43.192;23.284;2022-08-21T02:45:19;8.50;;;2.97;;
10347;SDS011;5220;43.192;23.284;2022-08-21T02:47:47;10.75;;;2.70;;
10347;SDS011;5220;43.192;23.284;2022-08-21T02:50:16;12.25;;;3.03;;
10347;SDS011;5220;43.192;23.284;2022-08-21T02:52:46;9.85;;;2.75;;
10347;SDS011;5220;43.192;23.284;2022-08-21T02:55:12;7.35;;;2.92;;
10347;SDS011;5220;43.192;23.284;2022-08-21T02:57:39;8.80;;;2.70;;
10347;SDS011;5220;43.192;23.284;2022-08-21T03:00:07;10.73;;;3.20;;
10347;SDS011;5220;43.192;23.284;2022-08-21T03:02:37;11.35;;;3.25;;
10347;SDS011;5220;43.192;23.284;2022-08-21T03:05:04;6.32;;;2.63;;
10347;SDS011;5220;43.192;23.284;2022-08-21T03:07:31;11.98;;;2.88;;
10347;SDS011;5220;43.192;23.284;2022-08-21T03:10:16;5.53;;;3.08;;
10347;SDS011;5220;43.192;23.284;2022-08-21T03:12:42;6.88;;;2.80;;
10347;SDS011;5220;43.192;23.284;2022-08-21T03:15:10;9.88;;;3.08;;
10347;SDS011;5220;43.192;23.284;2022-08-21T03:17:39;7.60;;;2.75;;
10347;SDS011;5220;43.192;23.284;2022-08-21T03:20:07;8.77;;;3.15;;
10347;SDS011;5220;43.192;23.284;2022-08-21T03:22:35;13.27;;;3.45;;
10347;SDS011;5220;43.192;23.284;2022-08-21T03:25:02;8.68;;;3.35;;
10347;SDS011;5220;43.192;23.284;2022-08-21T03:27:30;8.68;;;3.08;;
10347;SDS011;5220;43.192;23.284;2022-08-21T03:36:41;8.07;;;3.28;;
10347;SDS011;5220;43.192;23.284;2022-08-21T03:39:08;8.77;;;3.40;;
10347;SDS011;5220;43.192;23.284;2022-08-21T03:41:35;7.90;;;3.67;;
10347;SDS011;5220;43.192;23.284;2022-08-21T03:44:02;11.00;;;3.67;;
10347;SDS011;5220;43.192;23.284;2022-08-21T03:46:29;11.23;;;3.50;;
10347;SDS011;5220;43.192;23.284;2022-08-21T03:48:56;8.52;;;3.83;;
10347;SDS011;5220;43.192;23.284;2022-08-21T03:51:23;13.18;;;4.03;;
10347;SDS011;5220;43.192;23.284;2022-08-21T03:53:52;11.05;;;3.92;;
10347;SDS011;5220;43.192;23.284;2022-08-21T03:56:19;12.23;;;3.70;;
10347;SDS011;5220;43.192;23.284;2022-08-21T03:58:46;9.98;;;4.20;;
10347;SDS011;5220;43.192;23.284;2022-08-21T04:01:13;10.00;;;4.45;;
10347;SDS011;5220;43.192;23.284;2022-08-21T04:03:40;7.18;;;4.10;;
10347;SDS011;5220;43.192;23.284;2022-08-21T04:06:07;10.55;;;4.88;;
10347;SDS011;5220;43.192;23.284;2022-08-21T04:08:34;10.75;;;4.50;;
10347;SDS011;5220;43.192;23.284;2022-08-21T04:11:02;10.57;;;4.90;;
10347;SDS011;5220;43.192;23.284;2022-08-21T04:13:30;8.52;;;4.22;;
10347;SDS011;5220;43.192;23.284;2022-08-21T04:15:57;14.13;;;4.78;;
10347;SDS011;5220;43.192;23.284;2022-08-21T04:18:24;14.95;;;4.38;;
10347;SDS011;5220;43.192;23.284;2022-08-21T04:20:51;15.43;;;4.30;;
10347;SDS011;5220;43.192;23.284;2022-08-21T04:23:19;12.05;;;4.25;;
10347;SDS011;5220;43.192;23.284;2022-08-21T04:25:46;11.57;;;4.65;;
10347;SDS011;5220;43.192;23.284;2022-08-21T04:28:14;9.10;;;5.03;;
10347;SDS011;5220;43.192;23.284;2022-08-21T04:30:41;12.13;;;4.60;;
10347;SDS011;5220;43.192;23.284;2022-08-21T04:33:08;9.30;;;4.03;;
10347;SDS011;5220;43.192;23.284;2022-08-21T04:35:35;11.50;;;5.18;;
10347;SDS011;5220;43.192;23.284;2022-08-21T04:38:01;9.10;;;4.85;;
10347;SDS011;5220;43.192;23.284;2022-08-21T04:40:28;12.02;;;4.97;;
10347;SDS011;5220;43.192;23.284;2022-08-21T04:42:56;6.20;;;4.32;;
10347;SDS011;5220;43.192;23.284;2022-08-21T04:45:27;12.57;;;4.40;;
10347;SDS011;5220;43.192;23.284;2022-08-21T04:47:55;6.53;;;4.53;;
10347;SDS011;5220;43.192;23.284;2022-08-21T04:50:24;10.07;;;5.07;;
10347;SDS011;5220;43.192;23.284;2022-08-21T04:52:54;9.27;;;5.18;;
10347;SDS011;5220;43.192;23.284;2022-08-21T04:55:21;10.50;;;4.38;;
10347;SDS011;5220;43.192;23.284;2022-08-21T04:57:52;7.47;;;4.38;;
10347;SDS011;5220;43.192;23.284;2022-08-21T05:00:20;10.75;;;4.85;;
10347;SDS011;5220;43.192;23.284;2022-08-21T05:02:50;10.90;;;5.25;;
10347;SDS011;5220;43.192;23.284;2022-08-21T05:05:21;6.95;;;4.63;;
10347;SDS011;5220;43.192;23.284;2022-08-21T05:07:48;8.43;;;4.70;;
10347;SDS011;5220;43.192;23.284;2022-08-21T05:10:15;11.13;;;5.32;;
10347;SDS011;5220;43.192;23.284;2022-08-21T05:12:42;11.25;;;4.93;;
10347;SDS011;5220;43.192;23.284;2022-08-21T05:15:10;10.60;;;5.07;;
10347;SDS011;5220;43.192;23.284;2022-08-21T05:17:38;7.78;;;4.45;;
10347;SDS011;5220;43.192;23.284;2022-08-21T05:20:06;9.38;;;4.82;;
10347;SDS011;5220;43.192;23.284;2022-08-21T05:22:34;10.30;;;4.80;;
10347;SDS011;5220;43.192;23.284;2022-08-21T05:25:00;10.80;;;5.60;;
10347;SDS011;5220;43.192;23.284;2022-08-21T05:27:27;10.18;;;5.05;;
10347;SDS011;5220;43.192;23.284;2022-08-21T05:29:55;8.95;;;5.00;;
10347;SDS011;5220;43.192;23.284;2022-08-21T05:32:22;11.95;;;5.40;;
10347;SDS011;5220;43.192;23.284;2022-08-21T05:34:49;9.40;;;5.25;;
10347;SDS011;5220;43.192;23.284;2022-08-21T05:37:17;8.65;;;5.20;;
10347;SDS011;5220;43.192;23.284;2022-08-21T05:39:44;8.80;;;5.18;;
10347;SDS011;5220;43.192;23.284;2022-08-21T05:42:11;11.88;;;5.10;;
10347;SDS011;5220;43.192;23.284;2022-08-21T05:44:37;9.90;;;5.00;;
10347;SDS011;5220;43.192;23.284;2022-08-21T05:47:05;10.18;;;5.80;;
10347;SDS011;5220;43.192;23.284;2022-08-21T05:49:32;7.90;;;5.47;;
10347;SDS011;5220;43.192;23.284;2022-08-21T05:51:59;10.75;;;6.22;;
10347;SDS011;5220;43.192;23.284;2022-08-21T05:54:27;9.90;;;5.70;;
10347;SDS011;5220;43.192;23.284;2022-08-21T05:56:54;11.55;;;5.80;;
10347;SDS011;5220;43.192;23.284;2022-08-21T06:02:33;6.00;;;5.28;;
10347;SDS011;5220;43.192;23.284;2022-08-21T06:07:56;7.93;;;5.60;;
10347;SDS011;5220;43.192;23.284;2022-08-21T06:10:24;7.55;;;5.15;;
10347;SDS011;5220;43.192;23.284;2022-08-21T06:12:52;9.48;;;5.28;;
10347;SDS011;5220;43.192;23.284;2022-08-21T06:15:20;8.88;;;5.05;;
10347;SDS011;5220;43.192;23.284;2022-08-21T06:17:47;7.70;;;5.60;;
10347;SDS011;5220;43.192;23.284;2022-08-21T06:20:13;10.55;;;5.20;;
10347;SDS011;5220;43.192;23.284;2022-08-21T06:22:40;8.70;;;5.63;;
10347;SDS011;5220;43.192;23.284;2022-08-21T06:25:07;11.45;;;5.78;;
10347;SDS011;5220;43.192;23.284;2022-08-21T06:27:36;10.10;;;5.50;;
10347;SDS011;5220;43.192;23.284;2022-08-21T06:32:40;8.60;;;5.30;;
10347;SDS011;5220;43.192;23.284;2022-08-21T06:35:07;8.65;;;5.38;;
10347;SDS011;5220;43.192;23.284;2022-08-21T06:37:34;9.23;;;5.45;;
10347;SDS011;5220;43.192;23.284;2022-08-21T06:40:13;8.65;;;5.55;;
10347;SDS011;5220;43.192;23.284;2022-08-21T06:42:41;10.45;;;5.53;;
10347;SDS011;5220;43.192;23.284;2022-08-21T06:45:08;7.15;;;4.90;;
10347;SDS011;5220;43.192;23.284;2022-08-21T06:47:35;8.10;;;4.70;;
10347;SDS011;5220;43.192;23.284;2022-08-21T06:53:12;6.85;;;4.38;;
10347;SDS011;5220;43.192;23.284;2022-08-21T06:55:40;9.02;;;4.50;;
10347;SDS011;5220;43.192;23.284;2022-08-21T06:58:09;9.13;;;4.88;;
10347;SDS011;5220;43.192;23.284;2022-08-21T07:00:37;11.05;;;5.03;;
10347;SDS011;5220;43.192;23.284;2022-08-21T07:03:06;8.98;;;4.95;;
10347;SDS011;5220;43.192;23.284;2022-08-21T07:05:33;9.27;;;4.95;;
10347;SDS011;5220;43.192;23.284;2022-08-21T07:07:59;8.57;;;4.82;;
10347;SDS011;5220;43.192;23.284;2022-08-21T07:10:26;10.35;;;4.80;;
10347;SDS011;5220;43.192;23.284;2022-08-21T07:12:54;8.80;;;4.60;;
10347;SDS011;5220;43.192;23.284;2022-08-21T07:15:22;12.55;;;5.10;;
10347;SDS011;5220;43.192;23.284;2022-08-21T07:17:49;9.75;;;4.70;;
10347;SDS011;5220;43.192;23.284;2022-08-21T07:20:15;9.10;;;4.68;;
10347;SDS011;5220;43.192;23.284;2022-08-21T07:22:42;5.50;;;4.47;;
10347;SDS011;5220;43.192;23.284;2022-08-21T07:25:10;10.85;;;4.40;;
10347;SDS011;5220;43.192;23.284;2022-08-21T07:27:37;8.13;;;4.93;;
10347;SDS011;5220;43.192;23.284;2022-08-21T07:33:13;6.57;;;4.35;;
10347;SDS011;5220;43.192;23.284;2022-08-21T07:35:39;8.45;;;4.85;;
10347;SDS011;5220;43.192;23.284;2022-08-21T07:38:06;8.85;;;4.68;;
10347;SDS011;5220;43.192;23.284;2022-08-21T07:40:33;8.90;;;4.30;;
10347;SDS011;5220;43.192;23.284;2022-08-21T07:43:00;9.25;;;4.50;;
10347;SDS011;5220;43.192;23.284;2022-08-21T07:45:27;5.88;;;4.18;;
10347;SDS011;5220;43.192;23.284;2022-08-21T07:47:53;6.35;;;4.10;;
10347;SDS011;5220;43.192;23.284;2022-08-21T07:50:21;5.50;;;4.13;;
10347;SDS011;5220;43.192;23.284;2022-08-21T07:52:49;8.05;;;4.80;;
10347;SDS011;5220;43.192;23.284;2022-08-21T07:55:17;7.20;;;4.82;;
10347;SDS011;5220;43.192;23.284;2022-08-21T07:57:45;6.68;;;4.45;;
10347;SDS011;5220;43.192;23.284;2022-08-21T08:00:15;8.10;;;4.72;;
10347;SDS011;5220;43.192;23.284;2022-08-21T08:02:44;10.05;;;4.95;;
10347;SDS011;5220;43.192;23.284;2022-08-21T08:05:14;9.57;;;4.85;;
10347;SDS011;5220;43.192;23.284;2022-08-21T08:07:44;11.00;;;5.15;;
10347;SDS011;5220;43.192;23.284;2022-08-21T08:10:11;8.70;;;4.80;;
10347;SDS011;5220;43.192;23.284;2022-08-21T08:12:39;6.93;;;4.47;;
10347;SDS011;5220;43.192;23.284;2022-08-21T08:15:08;9.82;;;4.65;;
10347;SDS011;5220;43.192;23.284;2022-08-21T08:17:38;9.45;;;5.03;;
10347;SDS011;5220;43.192;23.284;2022-08-21T08:22:52;6.60;;;4.47;;
10347;SDS011;5220;43.192;23.284;2022-08-21T08:25:20;8.75;;;4.40;;
10347;SDS011;5220;43.192;23.284;2022-08-21T08:27:48;9.25;;;4.05;;
10347;SDS011;5220;43.192;23.284;2022-08-21T08:30:16;7.57;;;4.68;;
10347;SDS011;5220;43.192;23.284;2022-08-21T08:32:44;7.63;;;4.95;;
10347;SDS011;5220;43.192;23.284;2022-08-21T08:35:11;10.77;;;4.57;;
10347;SDS011;5220;43.192;23.284;2022-08-21T08:37:39;7.20;;;4.72;;
10347;SDS011;5220;43.192;23.284;2022-08-21T08:40:11;10.65;;;5.40;;
10347;SDS011;5220;43.192;23.284;2022-08-21T08:42:39;7.50;;;4.40;;
10347;SDS011;5220;43.192;23.284;2022-08-21T08:45:08;8.77;;;4.18;;
10347;SDS011;5220;43.192;23.284;2022-08-21T08:47:47;8.60;;;4.15;;
10347;SDS011;5220;43.192;23.284;2022-08-21T08:50:36;7.43;;;4.55;;
10347;SDS011;5220;43.192;23.284;2022-08-21T08:53:07;6.72;;;4.38;;
10347;SDS011;5220;43.192;23.284;2022-08-21T08:55:42;10.10;;;4.22;;
10347;SDS011;5220;43.192;23.284;2022-08-21T08:58:20;9.48;;;4.28;;
10347;SDS011;5220;43.192;23.284;2022-08-21T09:00:50;9.93;;;4.60;;
10347;SDS011;5220;43.192;23.284;2022-08-21T09:03:18;7.05;;;4.30;;
10347;SDS011;5220;43.192;23.284;2022-08-21T09:05:46;7.82;;;4.70;;
10347;SDS011;5220;43.192;23.284;2022-08-21T09:08:25;7.40;;;4.25;;
10347;SDS011;5220;43.192;23.284;2022-08-21T09:14:03;8.18;;;4.60;;
10347;SDS011;5220;43.192;23.284;2022-08-21T09:16:38;7.60;;;4.10;;
10347;SDS011;5220;43.192;23.284;2022-08-21T09:19:22;12.00;;;4.88;;
10347;SDS011;5220;43.192;23.284;2022-08-21T09:22:01;8.05;;;4.03;;
10347;SDS011;5220;43.192;23.284;2022-08-21T09:24:40;6.47;;;4.35;;
10347;SDS011;5220;43.192;23.284;2022-08-21T09:27:15;10.00;;;4.82;;
10347;SDS011;5220;43.192;23.284;2022-08-21T09:29:45;10.40;;;4.30;;
10347;SDS011;5220;43.192;23.284;2022-08-21T09:32:17;8.85;;;3.83;;
10347;SDS011;5220;43.192;23.284;2022-08-21T09:34:55;8.50;;;4.43;;
10347;SDS011;5220;43.192;23.284;2022-08-21T09:37:24;10.15;;;5.10;;
10347;SDS011;5220;43.192;23.284;2022-08-21T09:40:01;8.55;;;4.40;;
10347;SDS011;5220;43.192;23.284;2022-08-21T09:42:31;6.13;;;4.65;;
10347;SDS011;5220;43.192;23.284;2022-08-21T09:45:10;9.00;;;4.65;;
10347;SDS011;5220;43.192;23.284;2022-08-21T09:47:40;14.13;;;6.10;;
10347;SDS011;5220;43.192;23.284;2022-08-21T09:50:09;8.02;;;3.90;;
10347;SDS011;5220;43.192;23.284;2022-08-21T09:52:46;8.32;;;4.55;;
10347;SDS011;5220;43.192;23.284;2022-08-21T09:55:16;9.98;;;5.18;;
10347;SDS011;5220;43.192;23.284;2022-08-21T09:58:05;8.15;;;4.13;;
10347;SDS011;5220;43.192;23.284;2022-08-21T10:00:34;7.50;;;3.80;;
10347;SDS011;5220;43.192;23.284;2022-08-21T10:03:09;6.55;;;3.92;;
10347;SDS011;5220;43.192;23.284;2022-08-21T10:05:37;9.27;;;3.90;;
10347;SDS011;5220;43.192;23.284;2022-08-21T10:08:08;9.63;;;4.30;;
10347;SDS011;5220;43.192;23.284;2022-08-21T10:10:43;8.63;;;4.05;;
10347;SDS011;5220;43.192;23.284;2022-08-21T10:13:12;7.57;;;4.45;;
10347;SDS011;5220;43.192;23.284;2022-08-21T10:15:46;12.75;;;4.78;;
10347;SDS011;5220;43.192;23.284;2022-08-21T10:18:19;11.68;;;6.15;;
10347;SDS011;5220;43.192;23.284;2022-08-21T10:20:51;8.43;;;4.65;;
10347;SDS011;5220;43.192;23.284;2022-08-21T10:23:34;9.50;;;4.88;;
10347;SDS011;5220;43.192;23.284;2022-08-21T10:26:11;11.30;;;5.20;;
10347;SDS011;5220;43.192;23.284;2022-08-21T10:29:05;8.23;;;4.50;;
10347;SDS011;5220;43.192;23.284;2022-08-21T10:31:41;10.82;;;4.93;;
10347;SDS011;5220;43.192;23.284;2022-08-21T10:34:20;8.25;;;4.97;;
10347;SDS011;5220;43.192;23.284;2022-08-21T10:37:01;11.27;;;5.70;;
10347;SDS011;5220;43.192;23.284;2022-08-21T10:39:41;9.57;;;5.18;;
10347;SDS011;5220;43.192;23.284;2022-08-21T10:42:24;9.07;;;4.95;;
10347;SDS011;5220;43.192;23.284;2022-08-21T10:45:07;10.68;;;4.97;;
10347;SDS011;5220;43.192;23.284;2022-08-21T10:47:41;11.40;;;5.05;;
10347;SDS011;5220;43.192;23.284;2022-08-21T10:50:16;7.50;;;4.47;;
10347;SDS011;5220;43.192;23.284;2022-08-21T10:52:53;7.97;;;5.40;;
10347;SDS011;5220;43.192;23.284;2022-08-21T10:55:31;7.63;;;4.60;;
10347;SDS011;5220;43.192;23.284;2022-08-21T10:58:02;9.68;;;5.40;;
10347;SDS011;5220;43.192;23.284;2022-08-21T11:00:38;9.35;;;4.60;;
10347;SDS011;5220;43.192;23.284;2022-08-21T11:03:11;8.95;;;5.28;;
10347;SDS011;5220;43.192;23.284;2022-08-21T11:05:44;8.60;;;4.70;;
10347;SDS011;5220;43.192;23.284;2022-08-21T11:08:17;9.25;;;4.70;;
10347;SDS011;5220;43.192;23.284;2022-08-21T11:10:50;9.05;;;4.78;;
10347;SDS011;5220;43.192;23.284;2022-08-21T11:13:22;5.97;;;4.55;;
10347;SDS011;5220;43.192;23.284;2022-08-21T11:15:56;7.70;;;4.93;;
10347;SDS011;5220;43.192;23.284;2022-08-21T11:24:47;9.57;;;4.78;;
10347;SDS011;5220;43.192;23.284;2022-08-21T11:27:22;6.95;;;4.80;;
10347;SDS011;5220;43.192;23.284;2022-08-21T11:36:06;9.18;;;5.63;;
10347;SDS011;5220;43.192;23.284;2022-08-21T11:38:51;12.93;;;5.93;;
10347;SDS011;5220;43.192;23.284;2022-08-21T11:44:32;8.90;;;5.35;;
10347;SDS011;5220;43.192;23.284;2022-08-21T11:47:12;9.98;;;5.18;;
10347;SDS011;5220;43.192;23.284;2022-08-21T11:52:47;10.63;;;4.93;;
10347;SDS011;5220;43.192;23.284;2022-08-21T11:55:19;11.30;;;4.63;;
10347;SDS011;5220;43.192;23.284;2022-08-21T11:57:52;7.80;;;4.47;;
10347;SDS011;5220;43.192;23.284;2022-08-21T12:00:25;7.43;;;4.63;;
10347;SDS011;5220;43.192;23.284;2022-08-21T12:06:27;14.65;;;4.60;;
10347;SDS011;5220;43.192;23.284;2022-08-21T12:08:58;7.78;;;4.50;;
10347;SDS011;5220;43.192;23.284;2022-08-21T12:11:27;6.78;;;4.60;;
10347;SDS011;5220;43.192;23.284;2022-08-21T12:16:39;12.77;;;5.15;;
10347;SDS011;5220;43.192;23.284;2022-08-21T12:24:47;7.32;;;4.70;;
10347;SDS011;5220;43.192;23.284;2022-08-21T12:27:20;10.82;;;4.95;;
10347;SDS011;5220;43.192;23.284;2022-08-21T12:36:53;14.13;;;5.13;;
10347;SDS011;5220;43.192;23.284;2022-08-21T12:39:27;9.25;;;5.15;;
10347;SDS011;5220;43.192;23.284;2022-08-21T12:45:20;10.40;;;5.45;;
10347;SDS011;5220;43.192;23.284;2022-08-21T12:47:54;10.25;;;5.32;;
10347;SDS011;5220;43.192;23.284;2022-08-21T12:53:19;9.20;;;4.80;;
10347;SDS011;5220;43.192;23.284;2022-08-21T12:59:15;11.52;;;6.10;;
10347;SDS011;5220;43.192;23.284;2022-08-21T13:01:45;8.55;;;5.35;;
10347;SDS011;5220;43.192;23.284;2022-08-21T13:04:17;8.95;;;5.45;;
10347;SDS011;5220;43.192;23.284;2022-08-21T13:12:54;9.32;;;5.82;;
10347;SDS011;5220;43.192;23.284;2022-08-21T13:15:37;12.02;;;6.45;;
10347;SDS011;5220;43.192;23.284;2022-08-21T13:18:21;10.52;;;5.55;;
10347;SDS011;5220;43.192;23.284;2022-08-21T13:26:59;9.80;;;5.88;;
10347;SDS011;5220;43.192;23.284;2022-08-21T13:32:18;10.88;;;7.55;;
10347;SDS011;5220;43.192;23.284;2022-08-21T13:34:50;11.65;;;8.27;;
10347;SDS011;5220;43.192;23.284;2022-08-21T13:37:32;12.50;;;7.35;;
10347;SDS011;5220;43.192;23.284;2022-08-21T13:40:14;12.95;;;7.50;;
10347;SDS011;5220;43.192;23.284;2022-08-21T13:45:16;9.65;;;7.85;;
10347;SDS011;5220;43.192;23.284;2022-08-21T13:47:48;14.25;;;8.40;;
10347;SDS011;5220;43.192;23.284;2022-08-21T13:53:06;14.60;;;8.60;;
10347;SDS011;5220;43.192;23.284;2022-08-21T13:55:45;12.88;;;7.82;;
10347;SDS011;5220;43.192;23.284;2022-08-21T13:58:12;9.85;;;8.00;;
10347;SDS011;5220;43.192;23.284;2022-08-21T14:00:49;9.05;;;7.88;;
10347;SDS011;5220;43.192;23.284;2022-08-21T14:03:30;15.10;;;8.52;;
10347;SDS011;5220;43.192;23.284;2022-08-21T14:06:16;11.52;;;7.65;;
10347;SDS011;5220;43.192;23.284;2022-08-21T14:08:48;8.38;;;7.00;;
10347;SDS011;5220;43.192;23.284;2022-08-21T14:11:23;11.98;;;6.65;;
10347;SDS011;5220;43.192;23.284;2022-08-21T14:13:56;12.85;;;6.43;;
10347;SDS011;5220;43.192;23.284;2022-08-21T14:19:35;9.65;;;6.47;;
10347;SDS011;5220;43.192;23.284;2022-08-21T14:25:01;24.30;;;9.43;;
10347;SDS011;5220;43.192;23.284;2022-08-21T14:27:30;20.70;;;8.40;;
10347;SDS011;5220;43.192;23.284;2022-08-21T14:33:03;13.23;;;7.97;;
10347;SDS011;5220;43.192;23.284;2022-08-21T14:35:35;13.73;;;7.60;;
10347;SDS011;5220;43.192;23.284;2022-08-21T14:38:12;19.23;;;8.90;;
10347;SDS011;5220;43.192;23.284;2022-08-21T14:40:43;13.80;;;8.45;;
10347;SDS011;5220;43.192;23.284;2022-08-21T14:43:13;14.85;;;8.85;;
10347;SDS011;5220;43.192;23.284;2022-08-21T14:45:40;13.88;;;9.57;;
10347;SDS011;5220;43.192;23.284;2022-08-21T14:48:09;19.02;;;9.02;;
10347;SDS011;5220;43.192;23.284;2022-08-21T14:50:36;14.90;;;8.60;;
10347;SDS011;5220;43.192;23.284;2022-08-21T14:53:04;8.63;;;7.45;;
10347;SDS011;5220;43.192;23.284;2022-08-21T14:55:33;14.93;;;8.63;;
10347;SDS011;5220;43.192;23.284;2022-08-21T15:01:08;9.07;;;7.57;;
10347;SDS011;5220;43.192;23.284;2022-08-21T15:03:37;11.80;;;6.97;;
10347;SDS011;5220;43.192;23.284;2022-08-21T15:06:05;8.57;;;6.10;;
10347;SDS011;5220;43.192;23.284;2022-08-21T15:08:41;8.75;;;6.50;;
10347;SDS011;5220;43.192;23.284;2022-08-21T15:11:15;8.38;;;6.15;;
10347;SDS011;5220;43.192;23.284;2022-08-21T15:13:47;8.88;;;6.25;;
10347;SDS011;5220;43.192;23.284;2022-08-21T15:16:22;9.40;;;6.07;;
10347;SDS011;5220;43.192;23.284;2022-08-21T15:18:53;8.88;;;6.35;;
10347;SDS011;5220;43.192;23.284;2022-08-21T15:21:25;7.57;;;6.18;;
10347;SDS011;5220;43.192;23.284;2022-08-21T15:23:52;11.07;;;6.30;;
10347;SDS011;5220;43.192;23.284;2022-08-21T15:26:20;8.55;;;6.30;;
10347;SDS011;5220;43.192;23.284;2022-08-21T15:28:49;7.70;;;5.72;;
10347;SDS011;5220;43.192;23.284;2022-08-21T15:31:16;6.93;;;5.93;;
10347;SDS011;5220;43.192;23.284;2022-08-21T15:33:43;8.43;;;6.57;;
10347;SDS011;5220;43.192;23.284;2022-08-21T15:36:10;8.45;;;6.72;;
10347;SDS011;5220;43.192;23.284;2022-08-21T15:41:33;9.52;;;6.35;;
10347;SDS011;5220;43.192;23.284;2022-08-21T15:44:00;7.78;;;5.15;;
10347;SDS011;5220;43.192;23.284;2022-08-21T15:46:27;5.20;;;4.80;;
10347;SDS011;5220;43.192;23.284;2022-08-21T15:49:07;6.05;;;5.00;;
10347;SDS011;5220;43.192;23.284;2022-08-21T15:54:56;6.28;;;4.63;;
10347;SDS011;5220;43.192;23.284;2022-08-21T15:57:24;4.85;;;4.32;;
10347;SDS011;5220;43.192;23.284;2022-08-21T16:03:23;4.78;;;4.00;;
10347;SDS011;5220;43.192;23.284;2022-08-21T16:05:51;6.55;;;4.28;;
10347;SDS011;5220;43.192;23.284;2022-08-21T16:08:29;5.90;;;4.40;;
10347;SDS011;5220;43.192;23.284;2022-08-21T16:10:56;4.85;;;4.28;;
10347;SDS011;5220;43.192;23.284;2022-08-21T16:13:25;5.90;;;4.22;;
10347;SDS011;5220;43.192;23.284;2022-08-21T16:15:55;5.18;;;4.78;;
10347;SDS011;5220;43.192;23.284;2022-08-21T16:18:22;6.22;;;4.65;;
10347;SDS011;5220;43.192;23.284;2022-08-21T16:23:47;6.53;;;4.50;;
10347;SDS011;5220;43.192;23.284;2022-08-21T16:26:14;5.47;;;4.97;;
10347;SDS011;5220;43.192;23.284;2022-08-21T16:34:11;7.13;;;4.63;;
10347;SDS011;5220;43.192;23.284;2022-08-21T16:36:45;6.40;;;4.72;;
10347;SDS011;5220;43.192;23.284;2022-08-21T16:41:46;5.85;;;4.47;;
10347;SDS011;5220;43.192;23.284;2022-08-21T16:44:16;5.32;;;4.20;;
10347;SDS011;5220;43.192;23.284;2022-08-21T16:46:44;5.13;;;4.63;;
10347;SDS011;5220;43.192;23.284;2022-08-21T16:49:22;6.22;;;4.43;;
10347;SDS011;5220;43.192;23.284;2022-08-21T16:51:50;4.90;;;4.05;;
10347;SDS011;5220;43.192;23.284;2022-08-21T16:54:17;8.32;;;4.93;;
10347;SDS011;5220;43.192;23.284;2022-08-21T16:56:44;7.35;;;5.30;;
10347;SDS011;5220;43.192;23.284;2022-08-21T16:59:13;5.47;;;4.97;;
10347;SDS011;5220;43.192;23.284;2022-08-21T17:01:42;5.38;;;4.75;;
10347;SDS011;5220;43.192;23.284;2022-08-21T17:04:13;6.40;;;4.93;;
10347;SDS011;5220;43.192;23.284;2022-08-21T17:06:40;10.25;;;5.53;;
10347;SDS011;5220;43.192;23.284;2022-08-21T17:09:08;6.10;;;4.65;;
10347;SDS011;5220;43.192;23.284;2022-08-21T17:11:58;5.72;;;4.45;;
10347;SDS011;5220;43.192;23.284;2022-08-21T17:14:27;7.40;;;5.55;;
10347;SDS011;5220;43.192;23.284;2022-08-21T17:16:54;7.80;;;4.90;;
10347;SDS011;5220;43.192;23.284;2022-08-21T17:21:58;9.43;;;7.85;;
10347;SDS011;5220;43.192;23.284;2022-08-21T17:24:27;14.10;;;5.60;;